Mount Pleasant, IA

8:48 PM CST on March 04, 2015 (GMT -0600)
Mount Pleasant Municipal | Change Station
CLOSE
Current Station
Airport
Location: Mount Pleasant,
Elevation: 735 ft
Nearby Weather Stations

Elev 735 ft 40.95 °N, 91.51 °W | Updated 53 minutes ago

Overcast
Overcast
15 °F
Feels Like 10 °F
N
4
Wind Variable Wind from ESE

Today
High -- | Low -- °F
--% Chance of Precip.
Yesterday
High -- | Low -- °F
Precip. -- in
6:35 AM 6:00 PM
Full, 100% visible
Pressure 30.36 in
Visibility 10.0 miles
Clouds Overcast 4700 ft
Windchill 10 °F
Dew Point 7 °F
Humidity 70%
Rainfall 0.00 in
Snow Depth Not available.
UV 0 out of 12
Pollen .40 out of 12
Air Quality Not available.
Flu Activity Not available.
METAR KMPZ 050155Z AUTO 11003KT 10SM OVC047 M09/M14 A3036 RMK AO2 T10921137

More Conditions Fewer Conditions

Pressure 30.36 in
Visibility 10.0 miles
Clouds Overcast 4700 ft
Windchill 10 °F
Dew Point 7 °F
Humidity 70%
Rainfall 0.00 in
Snow Depth Not available.
UV 0 out of 12
Pollen .40 out of 12
Air Quality Not available.
Flu Activity Not available.
METAR KMPZ 050155Z AUTO 11003KT 10SM OVC047 M09/M14 A3036 RMK AO2 T10921137

More Conditions Fewer Conditions

10-Day Weather Forecast

Almanac

Astronomy

Mar. 04, 2015 Rise Set
Actual Time
Civil Twilight
Nautical Twilight
Astronomical Twilight
Moon
Length of Visible Light
Length of Day
Tomorrow will be .
, % of the Moon is Illuminated

Today's Extremes

State Highs State Lows

Community

WunderPhotos

Upload Photos

1,802,634 photos uploaded!

WunderBlogs® & News

Nearby

Air Quality

  Air Quality AQ Index Pollutant
Not available.

Snow Depth

Station Depth Elevation

Earthquake Activity

City Distance Mag. Time & Date
Minimum magnitude displayed is 2.5.

Coastal Water Temperatures

Place Temperature

Nearby Weather Stations